sensor_id;sensor_type;location;lat;lon;timestamp;P1;durP1;ratioP1;P2;durP2;ratioP2
80425;SDS011;69766;51.476;5.704;2023-09-12T00:01:43;44.60;;;27.95;;
80425;SDS011;69766;51.476;5.704;2023-09-12T00:04:09;45.40;;;27.45;;
80425;SDS011;69766;51.476;5.704;2023-09-12T00:06:36;53.20;;;27.92;;
80425;SDS011;69766;51.476;5.704;2023-09-12T00:09:02;52.92;;;29.23;;
80425;SDS011;69766;51.476;5.704;2023-09-12T00:11:30;46.35;;;27.25;;
80425;SDS011;69766;51.476;5.704;2023-09-12T00:13:56;50.83;;;28.63;;
80425;SDS011;69766;51.476;5.704;2023-09-12T00:16:22;51.88;;;29.38;;
80425;SDS011;69766;51.476;5.704;2023-09-12T00:18:51;56.63;;;28.88;;
80425;SDS011;69766;51.476;5.704;2023-09-12T00:21:19;52.58;;;29.70;;
80425;SDS011;69766;51.476;5.704;2023-09-12T00:23:48;50.67;;;28.48;;
80425;SDS011;69766;51.476;5.704;2023-09-12T00:26:13;44.63;;;26.55;;
80425;SDS011;69766;51.476;5.704;2023-09-12T00:28:39;46.08;;;26.88;;
80425;SDS011;69766;51.476;5.704;2023-09-12T00:31:25;49.25;;;26.27;;
80425;SDS011;69766;51.476;5.704;2023-09-12T00:33:58;47.15;;;26.20;;
80425;SDS011;69766;51.476;5.704;2023-09-12T00:36:28;44.67;;;24.85;;
80425;SDS011;69766;51.476;5.704;2023-09-12T00:38:56;45.63;;;25.70;;
80425;SDS011;69766;51.476;5.704;2023-09-12T00:41:25;46.03;;;26.88;;
80425;SDS011;69766;51.476;5.704;2023-09-12T00:43:53;46.50;;;25.65;;
80425;SDS011;69766;51.476;5.704;2023-09-12T00:46:19;48.60;;;25.17;;
80425;SDS011;69766;51.476;5.704;2023-09-12T00:48:47;47.70;;;25.50;;
80425;SDS011;69766;51.476;5.704;2023-09-12T00:51:23;43.08;;;25.73;;
80425;SDS011;69766;51.476;5.704;2023-09-12T00:53:56;47.85;;;25.17;;
80425;SDS011;69766;51.476;5.704;2023-09-12T00:56:25;42.28;;;25.15;;
80425;SDS011;69766;51.476;5.704;2023-09-12T00:58:57;50.45;;;27.40;;
80425;SDS011;69766;51.476;5.704;2023-09-12T01:01:24;48.13;;;28.05;;
80425;SDS011;69766;51.476;5.704;2023-09-12T01:03:49;51.08;;;28.10;;
80425;SDS011;69766;51.476;5.704;2023-09-12T01:06:26;50.45;;;28.05;;
80425;SDS011;69766;51.476;5.704;2023-09-12T01:08:59;49.40;;;26.85;;
80425;SDS011;69766;51.476;5.704;2023-09-12T01:11:36;50.15;;;27.20;;
80425;SDS011;69766;51.476;5.704;2023-09-12T01:14:06;56.03;;;28.23;;
80425;SDS011;69766;51.476;5.704;2023-09-12T01:16:34;52.83;;;28.70;;
80425;SDS011;69766;51.476;5.704;2023-09-12T01:19:03;50.70;;;26.70;;
80425;SDS011;69766;51.476;5.704;2023-09-12T01:21:37;47.70;;;26.80;;
80425;SDS011;69766;51.476;5.704;2023-09-12T01:29:51;43.20;;;25.02;;
80425;SDS011;69766;51.476;5.704;2023-09-12T01:32:27;51.38;;;27.85;;
80425;SDS011;69766;51.476;5.704;2023-09-12T01:34:57;51.67;;;27.38;;
80425;SDS011;69766;51.476;5.704;2023-09-12T01:37:23;52.00;;;27.88;;
80425;SDS011;69766;51.476;5.704;2023-09-12T01:39:51;49.50;;;26.88;;
80425;SDS011;69766;51.476;5.704;2023-09-12T01:42:19;61.65;;;29.77;;
80425;SDS011;69766;51.476;5.704;2023-09-12T01:44:46;55.75;;;29.00;;
80425;SDS011;69766;51.476;5.704;2023-09-12T01:47:17;61.00;;;30.05;;
80425;SDS011;69766;51.476;5.704;2023-09-12T01:49:45;57.25;;;30.48;;
80425;SDS011;69766;51.476;5.704;2023-09-12T01:52:14;67.53;;;30.95;;
80425;SDS011;69766;51.476;5.704;2023-09-12T01:54:41;64.32;;;30.17;;
80425;SDS011;69766;51.476;5.704;2023-09-12T01:57:09;60.88;;;29.02;;
80425;SDS011;69766;51.476;5.704;2023-09-12T01:59:35;58.17;;;29.90;;
80425;SDS011;69766;51.476;5.704;2023-09-12T02:02:01;53.90;;;26.67;;
80425;SDS011;69766;51.476;5.704;2023-09-12T02:04:27;51.20;;;27.27;;
80425;SDS011;69766;51.476;5.704;2023-09-12T02:06:53;63.17;;;29.48;;
80425;SDS011;69766;51.476;5.704;2023-09-12T02:09:18;55.38;;;28.90;;
80425;SDS011;69766;51.476;5.704;2023-09-12T02:11:48;49.55;;;25.85;;
80425;SDS011;69766;51.476;5.704;2023-09-12T02:14:14;50.03;;;26.40;;
80425;SDS011;69766;51.476;5.704;2023-09-12T02:16:43;50.47;;;26.92;;
80425;SDS011;69766;51.476;5.704;2023-09-12T02:19:12;51.17;;;27.38;;
80425;SDS011;69766;51.476;5.704;2023-09-12T02:21:49;54.47;;;28.58;;
80425;SDS011;69766;51.476;5.704;2023-09-12T02:24:18;50.08;;;27.70;;
80425;SDS011;69766;51.476;5.704;2023-09-12T02:26:46;52.67;;;27.52;;
80425;SDS011;69766;51.476;5.704;2023-09-12T02:29:14;52.55;;;27.13;;
80425;SDS011;69766;51.476;5.704;2023-09-12T02:31:46;55.63;;;27.45;;
80425;SDS011;69766;51.476;5.704;2023-09-12T02:34:15;53.95;;;26.35;;
80425;SDS011;69766;51.476;5.704;2023-09-12T02:36:41;46.88;;;25.92;;
80425;SDS011;69766;51.476;5.704;2023-09-12T02:39:06;47.17;;;26.00;;
80425;SDS011;69766;51.476;5.704;2023-09-12T02:41:32;57.10;;;26.75;;
80425;SDS011;69766;51.476;5.704;2023-09-12T02:43:58;55.55;;;28.60;;
80425;SDS011;69766;51.476;5.704;2023-09-12T02:46:26;52.42;;;27.60;;
80425;SDS011;69766;51.476;5.704;2023-09-12T02:48:52;53.90;;;25.95;;
80425;SDS011;69766;51.476;5.704;2023-09-12T02:51:20;50.60;;;26.75;;
80425;SDS011;69766;51.476;5.704;2023-09-12T02:53:46;58.22;;;28.83;;
80425;SDS011;69766;51.476;5.704;2023-09-12T02:56:14;51.08;;;27.55;;
80425;SDS011;69766;51.476;5.704;2023-09-12T02:58:46;58.63;;;28.40;;
80425;SDS011;69766;51.476;5.704;2023-09-12T03:01:21;56.67;;;26.75;;
80425;SDS011;69766;51.476;5.704;2023-09-12T03:03:47;51.78;;;26.27;;
80425;SDS011;69766;51.476;5.704;2023-09-12T03:06:21;53.80;;;27.40;;
80425;SDS011;69766;51.476;5.704;2023-09-12T03:08:52;58.15;;;28.25;;
80425;SDS011;69766;51.476;5.704;2023-09-12T03:11:27;48.42;;;26.45;;
80425;SDS011;69766;51.476;5.704;2023-09-12T03:13:53;54.17;;;28.00;;
80425;SDS011;69766;51.476;5.704;2023-09-12T03:16:18;55.28;;;26.42;;
80425;SDS011;69766;51.476;5.704;2023-09-12T03:18:44;52.47;;;26.48;;
80425;SDS011;69766;51.476;5.704;2023-09-12T03:21:09;61.00;;;29.20;;
80425;SDS011;69766;51.476;5.704;2023-09-12T03:23:37;56.97;;;28.35;;
80425;SDS011;69766;51.476;5.704;2023-09-12T03:26:24;51.17;;;27.02;;
80425;SDS011;69766;51.476;5.704;2023-09-12T03:28:52;58.42;;;28.80;;
80425;SDS011;69766;51.476;5.704;2023-09-12T03:31:20;58.05;;;27.58;;
80425;SDS011;69766;51.476;5.704;2023-09-12T03:33:45;52.47;;;26.60;;
80425;SDS011;69766;51.476;5.704;2023-09-12T03:36:14;55.60;;;28.55;;
80425;SDS011;69766;51.476;5.704;2023-09-12T03:38:41;57.75;;;26.38;;
80425;SDS011;69766;51.476;5.704;2023-09-12T03:41:08;53.97;;;27.75;;
80425;SDS011;69766;51.476;5.704;2023-09-12T03:43:37;51.15;;;26.30;;
80425;SDS011;69766;51.476;5.704;2023-09-12T03:46:11;51.97;;;25.80;;
80425;SDS011;69766;51.476;5.704;2023-09-12T03:48:39;51.95;;;27.05;;
80425;SDS011;69766;51.476;5.704;2023-09-12T03:51:05;53.97;;;27.58;;
80425;SDS011;69766;51.476;5.704;2023-09-12T03:53:30;57.40;;;27.42;;
80425;SDS011;69766;51.476;5.704;2023-09-12T03:55:57;55.20;;;26.48;;
80425;SDS011;69766;51.476;5.704;2023-09-12T03:58:23;51.47;;;26.30;;
80425;SDS011;69766;51.476;5.704;2023-09-12T04:00:49;57.33;;;27.55;;
80425;SDS011;69766;51.476;5.704;2023-09-12T04:03:14;52.75;;;28.02;;
80425;SDS011;69766;51.476;5.704;2023-09-12T04:05:46;55.92;;;26.13;;
80425;SDS011;69766;51.476;5.704;2023-09-12T04:08:14;51.67;;;26.98;;
80425;SDS011;69766;51.476;5.704;2023-09-12T04:10:46;48.22;;;25.23;;
80425;SDS011;69766;51.476;5.704;2023-09-12T04:13:20;51.95;;;27.27;;
80425;SDS011;69766;51.476;5.704;2023-09-12T04:15:49;59.95;;;28.40;;
80425;SDS011;69766;51.476;5.704;2023-09-12T04:18:15;52.30;;;28.40;;
80425;SDS011;69766;51.476;5.704;2023-09-12T04:23:31;57.10;;;28.83;;
80425;SDS011;69766;51.476;5.704;2023-09-12T04:25:57;54.35;;;28.10;;
80425;SDS011;69766;51.476;5.704;2023-09-12T04:28:25;48.67;;;26.15;;
80425;SDS011;69766;51.476;5.704;2023-09-12T04:30:51;61.03;;;30.45;;
80425;SDS011;69766;51.476;5.704;2023-09-12T04:33:28;67.03;;;29.65;;
80425;SDS011;69766;51.476;5.704;2023-09-12T04:35:56;61.72;;;29.02;;
80425;SDS011;69766;51.476;5.704;2023-09-12T04:38:23;60.33;;;31.40;;
80425;SDS011;69766;51.476;5.704;2023-09-12T04:41:05;54.08;;;28.42;;
80425;SDS011;69766;51.476;5.704;2023-09-12T04:43:42;63.92;;;30.25;;
80425;SDS011;69766;51.476;5.704;2023-09-12T04:46:10;69.30;;;32.30;;
80425;SDS011;69766;51.476;5.704;2023-09-12T04:48:37;82.00;;;33.85;;
80425;SDS011;69766;51.476;5.704;2023-09-12T04:51:12;82.75;;;36.38;;
80425;SDS011;69766;51.476;5.704;2023-09-12T04:53:40;79.88;;;36.28;;
80425;SDS011;69766;51.476;5.704;2023-09-12T04:56:06;78.15;;;34.60;;
80425;SDS011;69766;51.476;5.704;2023-09-12T04:58:34;77.82;;;36.65;;
80425;SDS011;69766;51.476;5.704;2023-09-12T05:01:00;74.05;;;36.70;;
80425;SDS011;69766;51.476;5.704;2023-09-12T05:03:26;71.57;;;35.40;;
80425;SDS011;69766;51.476;5.704;2023-09-12T05:05:51;72.68;;;36.20;;
80425;SDS011;69766;51.476;5.704;2023-09-12T05:08:28;69.85;;;35.45;;
80425;SDS011;69766;51.476;5.704;2023-09-12T05:10:54;63.65;;;33.45;;
80425;SDS011;69766;51.476;5.704;2023-09-12T05:13:19;63.63;;;33.83;;
80425;SDS011;69766;51.476;5.704;2023-09-12T05:15:48;63.88;;;33.65;;
80425;SDS011;69766;51.476;5.704;2023-09-12T05:18:13;68.28;;;34.70;;
80425;SDS011;69766;51.476;5.704;2023-09-12T05:20:39;64.53;;;34.20;;
80425;SDS011;69766;51.476;5.704;2023-09-12T05:23:08;64.03;;;32.75;;
80425;SDS011;69766;51.476;5.704;2023-09-12T05:25:33;71.32;;;34.50;;
80425;SDS011;69766;51.476;5.704;2023-09-12T05:27:59;64.78;;;31.90;;
80425;SDS011;69766;51.476;5.704;2023-09-12T05:30:25;65.82;;;33.22;;
80425;SDS011;69766;51.476;5.704;2023-09-12T05:32:50;64.20;;;33.80;;
80425;SDS011;69766;51.476;5.704;2023-09-12T05:35:17;61.50;;;33.75;;
80425;SDS011;69766;51.476;5.704;2023-09-12T05:37:42;65.78;;;34.20;;
80425;SDS011;69766;51.476;5.704;2023-09-12T05:40:08;62.15;;;33.28;;
80425;SDS011;69766;51.476;5.704;2023-09-12T05:42:35;59.45;;;31.75;;
80425;SDS011;69766;51.476;5.704;2023-09-12T05:45:01;61.00;;;30.48;;
80425;SDS011;69766;51.476;5.704;2023-09-12T05:47:30;64.50;;;31.98;;
80425;SDS011;69766;51.476;5.704;2023-09-12T05:49:58;56.05;;;31.35;;
80425;SDS011;69766;51.476;5.704;2023-09-12T05:52:25;69.45;;;32.03;;
80425;SDS011;69766;51.476;5.704;2023-09-12T05:54:54;61.75;;;31.83;;
80425;SDS011;69766;51.476;5.704;2023-09-12T05:57:20;62.40;;;31.63;;
80425;SDS011;69766;51.476;5.704;2023-09-12T05:59:53;72.40;;;34.20;;
80425;SDS011;69766;51.476;5.704;2023-09-12T06:02:22;67.93;;;34.55;;
80425;SDS011;69766;51.476;5.704;2023-09-12T06:04:47;64.68;;;33.40;;
80425;SDS011;69766;51.476;5.704;2023-09-12T06:07:13;68.25;;;34.55;;
80425;SDS011;69766;51.476;5.704;2023-09-12T06:09:39;69.75;;;35.85;;
80425;SDS011;69766;51.476;5.704;2023-09-12T06:12:04;65.10;;;34.05;;
80425;SDS011;69766;51.476;5.704;2023-09-12T06:14:30;63.50;;;33.55;;
80425;SDS011;69766;51.476;5.704;2023-09-12T06:16:56;63.30;;;33.15;;
80425;SDS011;69766;51.476;5.704;2023-09-12T06:19:22;58.53;;;31.38;;
80425;SDS011;69766;51.476;5.704;2023-09-12T06:21:50;66.35;;;33.50;;
80425;SDS011;69766;51.476;5.704;2023-09-12T06:24:18;75.18;;;35.00;;
80425;SDS011;69766;51.476;5.704;2023-09-12T06:26:50;71.95;;;35.80;;
80425;SDS011;69766;51.476;5.704;2023-09-12T06:29:19;70.05;;;34.85;;
80425;SDS011;69766;51.476;5.704;2023-09-12T06:31:44;71.15;;;35.38;;
80425;SDS011;69766;51.476;5.704;2023-09-12T06:34:10;72.85;;;35.42;;
80425;SDS011;69766;51.476;5.704;2023-09-12T06:36:38;72.05;;;35.60;;
80425;SDS011;69766;51.476;5.704;2023-09-12T06:39:04;69.97;;;36.28;;
80425;SDS011;69766;51.476;5.704;2023-09-12T06:41:30;69.15;;;35.33;;
80425;SDS011;69766;51.476;5.704;2023-09-12T06:43:55;65.65;;;34.28;;
80425;SDS011;69766;51.476;5.704;2023-09-12T06:46:23;68.45;;;34.95;;
80425;SDS011;69766;51.476;5.704;2023-09-12T06:48:49;78.55;;;37.80;;
80425;SDS011;69766;51.476;5.704;2023-09-12T06:51:15;79.25;;;36.92;;
80425;SDS011;69766;51.476;5.704;2023-09-12T06:53:42;79.25;;;38.40;;
80425;SDS011;69766;51.476;5.704;2023-09-12T06:56:16;84.85;;;39.58;;
80425;SDS011;69766;51.476;5.704;2023-09-12T06:58:42;83.60;;;39.05;;
80425;SDS011;69766;51.476;5.704;2023-09-12T07:01:11;85.82;;;40.90;;
80425;SDS011;69766;51.476;5.704;2023-09-12T07:03:42;89.90;;;40.00;;
80425;SDS011;69766;51.476;5.704;2023-09-12T07:06:11;78.57;;;38.20;;
80425;SDS011;69766;51.476;5.704;2023-09-12T07:08:37;80.95;;;37.97;;
80425;SDS011;69766;51.476;5.704;2023-09-12T07:11:04;70.53;;;35.00;;
80425;SDS011;69766;51.476;5.704;2023-09-12T07:13:34;69.95;;;36.97;;
80425;SDS011;69766;51.476;5.704;2023-09-12T07:15:59;59.35;;;33.72;;
80425;SDS011;69766;51.476;5.704;2023-09-12T07:18:28;62.33;;;34.05;;
80425;SDS011;69766;51.476;5.704;2023-09-12T07:21:00;66.57;;;35.72;;
80425;SDS011;69766;51.476;5.704;2023-09-12T07:23:30;67.25;;;35.05;;
80425;SDS011;69766;51.476;5.704;2023-09-12T07:25:56;62.55;;;34.53;;
80425;SDS011;69766;51.476;5.704;2023-09-12T07:28:31;67.05;;;36.10;;
80425;SDS011;69766;51.476;5.704;2023-09-12T07:30:59;50.08;;;29.83;;
80425;SDS011;69766;51.476;5.704;2023-09-12T07:33:25;49.75;;;28.85;;
80425;SDS011;69766;51.476;5.704;2023-09-12T07:35:54;50.25;;;27.63;;
80425;SDS011;69766;51.476;5.704;2023-09-12T07:38:22;47.15;;;27.40;;
80425;SDS011;69766;51.476;5.704;2023-09-12T07:40:55;41.88;;;25.27;;
80425;SDS011;69766;51.476;5.704;2023-09-12T07:43:28;44.53;;;25.27;;
80425;SDS011;69766;51.476;5.704;2023-09-12T07:45:59;39.53;;;22.98;;
80425;SDS011;69766;51.476;5.704;2023-09-12T07:48:27;37.63;;;22.85;;
80425;SDS011;69766;51.476;5.704;2023-09-12T07:50:58;36.22;;;21.70;;
80425;SDS011;69766;51.476;5.704;2023-09-12T07:53:24;38.58;;;23.40;;
80425;SDS011;69766;51.476;5.704;2023-09-12T07:55:58;35.97;;;22.23;;
80425;SDS011;69766;51.476;5.704;2023-09-12T07:58:27;39.83;;;24.50;;
80425;SDS011;69766;51.476;5.704;2023-09-12T08:00:55;38.20;;;23.73;;
80425;SDS011;69766;51.476;5.704;2023-09-12T08:03:26;41.53;;;24.65;;
80425;SDS011;69766;51.476;5.704;2023-09-12T08:05:55;43.47;;;26.10;;
80425;SDS011;69766;51.476;5.704;2023-09-12T08:11:17;47.70;;;30.13;;
80425;SDS011;69766;51.476;5.704;2023-09-12T08:13:45;47.80;;;29.30;;
80425;SDS011;69766;51.476;5.704;2023-09-12T08:16:13;42.22;;;25.75;;
80425;SDS011;69766;51.476;5.704;2023-09-12T08:18:45;43.83;;;27.17;;
80425;SDS011;69766;51.476;5.704;2023-09-12T08:21:13;52.25;;;30.52;;
80425;SDS011;69766;51.476;5.704;2023-09-12T08:23:47;49.40;;;28.75;;
80425;SDS011;69766;51.476;5.704;2023-09-12T08:26:13;45.05;;;27.40;;
80425;SDS011;69766;51.476;5.704;2023-09-12T08:31:33;45.80;;;26.95;;
80425;SDS011;69766;51.476;5.704;2023-09-12T08:34:12;47.03;;;28.27;;
80425;SDS011;69766;51.476;5.704;2023-09-12T08:36:43;47.72;;;27.80;;
80425;SDS011;69766;51.476;5.704;2023-09-12T08:39:16;47.30;;;29.17;;
80425;SDS011;69766;51.476;5.704;2023-09-12T08:41:51;47.97;;;27.90;;
80425;SDS011;69766;51.476;5.704;2023-09-12T08:44:20;44.85;;;26.67;;
80425;SDS011;69766;51.476;5.704;2023-09-12T08:46:47;45.05;;;27.83;;
80425;SDS011;69766;51.476;5.704;2023-09-12T08:49:16;43.40;;;25.73;;
80425;SDS011;69766;51.476;5.704;2023-09-12T08:51:41;38.67;;;23.40;;
80425;SDS011;69766;51.476;5.704;2023-09-12T08:54:10;40.78;;;25.52;;
80425;SDS011;69766;51.476;5.704;2023-09-12T08:56:36;38.20;;;22.27;;
80425;SDS011;69766;51.476;5.704;2023-09-12T08:59:07;40.03;;;21.60;;
80425;SDS011;69766;51.476;5.704;2023-09-12T09:01:41;36.22;;;22.02;;
80425;SDS011;69766;51.476;5.704;2023-09-12T09:04:11;31.20;;;19.65;;
80425;SDS011;69766;51.476;5.704;2023-09-12T09:06:42;30.15;;;18.38;;
80425;SDS011;69766;51.476;5.704;2023-09-12T09:09:16;30.45;;;19.23;;
80425;SDS011;69766;51.476;5.704;2023-09-12T09:11:46;31.08;;;19.77;;
80425;SDS011;69766;51.476;5.704;2023-09-12T09:14:16;27.90;;;18.15;;
80425;SDS011;69766;51.476;5.704;2023-09-12T09:16:48;31.85;;;20.38;;
80425;SDS011;69766;51.476;5.704;2023-09-12T09:19:15;30.15;;;18.88;;
80425;SDS011;69766;51.476;5.704;2023-09-12T09:21:46;32.58;;;17.50;;
80425;SDS011;69766;51.476;5.704;2023-09-12T09:24:12;25.45;;;15.85;;
80425;SDS011;69766;51.476;5.704;2023-09-12T09:26:50;24.05;;;14.75;;
80425;SDS011;69766;51.476;5.704;2023-09-12T09:29:18;20.60;;;12.85;;
80425;SDS011;69766;51.476;5.704;2023-09-12T09:31:54;18.80;;;12.85;;
80425;SDS011;69766;51.476;5.704;2023-09-12T09:34:30;28.58;;;14.70;;
80425;SDS011;69766;51.476;5.704;2023-09-12T09:36:57;25.67;;;15.13;;
80425;SDS011;69766;51.476;5.704;2023-09-12T09:39:30;26.58;;;16.20;;
80425;SDS011;69766;51.476;5.704;2023-09-12T09:41:56;24.27;;;14.48;;
80425;SDS011;69766;51.476;5.704;2023-09-12T09:44:23;23.92;;;14.10;;
80425;SDS011;69766;51.476;5.704;2023-09-12T09:46:55;21.73;;;14.10;;
80425;SDS011;69766;51.476;5.704;2023-09-12T09:49:25;21.65;;;13.95;;
80425;SDS011;69766;51.476;5.704;2023-09-12T09:51:58;24.13;;;13.95;;
80425;SDS011;69766;51.476;5.704;2023-09-12T09:54:24;20.25;;;13.23;;
80425;SDS011;69766;51.476;5.704;2023-09-12T09:59:35;20.52;;;13.18;;
80425;SDS011;69766;51.476;5.704;2023-09-12T10:02:07;21.10;;;13.70;;
80425;SDS011;69766;51.476;5.704;2023-09-12T10:04:41;23.08;;;14.73;;
80425;SDS011;69766;51.476;5.704;2023-09-12T10:07:09;21.08;;;13.93;;
80425;SDS011;69766;51.476;5.704;2023-09-12T10:09:38;24.20;;;14.90;;
80425;SDS011;69766;51.476;5.704;2023-09-12T10:12:08;19.73;;;13.82;;
80425;SDS011;69766;51.476;5.704;2023-09-12T10:14:37;21.60;;;14.10;;
80425;SDS011;69766;51.476;5.704;2023-09-12T10:17:05;21.05;;;13.38;;
80425;SDS011;69766;51.476;5.704;2023-09-12T10:19:46;21.35;;;13.70;;
80425;SDS011;69766;51.476;5.704;2023-09-12T10:22:22;20.27;;;13.90;;
80425;SDS011;69766;51.476;5.704;2023-09-12T10:24:53;22.35;;;14.88;;
80425;SDS011;69766;51.476;5.704;2023-09-12T10:27:23;24.00;;;15.55;;
80425;SDS011;69766;51.476;5.704;2023-09-12T10:29:53;21.88;;;15.30;;
80425;SDS011;69766;51.476;5.704;2023-09-12T10:32:19;23.30;;;14.77;;
80425;SDS011;69766;51.476;5.704;2023-09-12T10:34:49;21.45;;;15.50;;
80425;SDS011;69766;51.476;5.704;2023-09-12T10:37:19;22.88;;;15.38;;
80425;SDS011;69766;51.476;5.704;2023-09-12T10:39:53;22.90;;;15.23;;
80425;SDS011;69766;51.476;5.704;2023-09-12T10:44:54;24.98;;;15.68;;
80425;SDS011;69766;51.476;5.704;2023-09-12T10:47:20;19.00;;;13.48;;
80425;SDS011;69766;51.476;5.704;2023-09-12T10:49:46;26.05;;;15.65;;
80425;SDS011;69766;51.476;5.704;2023-09-12T10:52:26;22.02;;;14.05;;
80425;SDS011;69766;51.476;5.704;2023-09-12T10:54:52;22.20;;;14.43;;
80425;SDS011;69766;51.476;5.704;2023-09-12T10:57:19;22.52;;;13.85;;
80425;SDS011;69766;51.476;5.704;2023-09-12T11:04:59;20.83;;;14.52;;
80425;SDS011;69766;51.476;5.704;2023-09-12T11:12:43;22.20;;;14.05;;
80425;SDS011;69766;51.476;5.704;2023-09-12T11:15:14;24.17;;;15.32;;
80425;SDS011;69766;51.476;5.704;2023-09-12T11:17:41;21.38;;;14.68;;
80425;SDS011;69766;51.476;5.704;2023-09-12T11:20:07;17.88;;;12.15;;
80425;SDS011;69766;51.476;5.704;2023-09-12T11:22:48;19.85;;;12.65;;
80425;SDS011;69766;51.476;5.704;2023-09-12T11:25:28;21.67;;;14.20;;
80425;SDS011;69766;51.476;5.704;2023-09-12T11:30:26;20.23;;;13.45;;
80425;SDS011;69766;51.476;5.704;2023-09-12T11:32:59;18.40;;;13.23;;
80425;SDS011;69766;51.476;5.704;2023-09-12T11:35:35;20.63;;;13.05;;
80425;SDS011;69766;51.476;5.704;2023-09-12T11:38:09;20.10;;;12.27;;
80425;SDS011;69766;51.476;5.704;2023-09-12T11:40:50;20.33;;;12.45;;
80425;SDS011;69766;51.476;5.704;2023-09-12T11:43:23;18.50;;;12.25;;
80425;SDS011;69766;51.476;5.704;2023-09-12T11:45:52;20.20;;;12.02;;
80425;SDS011;69766;51.476;5.704;2023-09-12T11:48:23;15.63;;;9.73;;
80425;SDS011;69766;51.476;5.704;2023-09-12T11:51:02;14.45;;;8.88;;
80425;SDS011;69766;51.476;5.704;2023-09-12T11:53:33;14.38;;;10.13;;
80425;SDS011;69766;51.476;5.704;2023-09-12T11:56:04;11.55;;;7.22;;
80425;SDS011;69766;51.476;5.704;2023-09-12T11:58:32;12.48;;;7.40;;
80425;SDS011;69766;51.476;5.704;2023-09-12T12:01:06;15.82;;;9.93;;
80425;SDS011;69766;51.476;5.704;2023-09-12T12:03:37;16.73;;;9.68;;
80425;SDS011;69766;51.476;5.704;2023-09-12T12:06:06;13.63;;;9.77;;
80425;SDS011;69766;51.476;5.704;2023-09-12T12:08:37;15.00;;;9.38;;
80425;SDS011;69766;51.476;5.704;2023-09-12T12:11:12;12.50;;;8.50;;
80425;SDS011;69766;51.476;5.704;2023-09-12T12:13:38;15.85;;;7.63;;
80425;SDS011;69766;51.476;5.704;2023-09-12T12:16:18;11.48;;;7.18;;
80425;SDS011;69766;51.476;5.704;2023-09-12T12:18:44;13.25;;;8.15;;
80425;SDS011;69766;51.476;5.704;2023-09-12T12:21:10;12.40;;;8.23;;
80425;SDS011;69766;51.476;5.704;2023-09-12T12:23:36;15.25;;;7.85;;
80425;SDS011;69766;51.476;5.704;2023-09-12T12:26:05;11.02;;;7.20;;
80425;SDS011;69766;51.476;5.704;2023-09-12T12:28:44;17.15;;;10.07;;
80425;SDS011;69766;51.476;5.704;2023-09-12T12:31:12;9.75;;;6.82;;
80425;SDS011;69766;51.476;5.704;2023-09-12T12:33:49;11.73;;;7.43;;
80425;SDS011;69766;51.476;5.704;2023-09-12T12:36:16;12.70;;;8.20;;
80425;SDS011;69766;51.476;5.704;2023-09-12T12:38:45;13.57;;;8.73;;
80425;SDS011;69766;51.476;5.704;2023-09-12T12:41:27;11.80;;;7.25;;
80425;SDS011;69766;51.476;5.704;2023-09-12T12:44:00;12.07;;;7.72;;
80425;SDS011;69766;51.476;5.704;2023-09-12T12:46:28;10.32;;;6.75;;
80425;SDS011;69766;51.476;5.704;2023-09-12T12:48:54;8.82;;;6.25;;
80425;SDS011;69766;51.476;5.704;2023-09-12T12:51:21;12.98;;;7.35;;
80425;SDS011;69766;51.476;5.704;2023-09-12T12:53:51;12.18;;;8.07;;
80425;SDS011;69766;51.476;5.704;2023-09-12T12:56:28;10.88;;;7.45;;
80425;SDS011;69766;51.476;5.704;2023-09-12T12:58:55;12.43;;;7.20;;
80425;SDS011;69766;51.476;5.704;2023-09-12T13:01:23;14.60;;;7.28;;
80425;SDS011;69766;51.476;5.704;2023-09-12T13:03:51;11.80;;;7.88;;
80425;SDS011;69766;51.476;5.704;2023-09-12T13:06:19;12.52;;;8.77;;
80425;SDS011;69766;51.476;5.704;2023-09-12T13:08:51;10.90;;;7.60;;
80425;SDS011;69766;51.476;5.704;2023-09-12T13:11:24;11.82;;;8.20;;
80425;SDS011;69766;51.476;5.704;2023-09-12T13:13:50;15.27;;;9.93;;
80425;SDS011;69766;51.476;5.704;2023-09-12T13:16:15;15.65;;;9.60;;
80425;SDS011;69766;51.476;5.704;2023-09-12T13:18:41;12.38;;;8.90;;
80425;SDS011;69766;51.476;5.704;2023-09-12T13:21:13;14.05;;;8.20;;
80425;SDS011;69766;51.476;5.704;2023-09-12T13:23:49;12.73;;;8.52;;
80425;SDS011;69766;51.476;5.704;2023-09-12T13:29:01;13.85;;;8.82;;
80425;SDS011;69766;51.476;5.704;2023-09-12T13:31:27;12.75;;;8.15;;
80425;SDS011;69766;51.476;5.704;2023-09-12T13:33:53;10.65;;;7.00;;
80425;SDS011;69766;51.476;5.704;2023-09-12T13:36:18;15.82;;;9.30;;
80425;SDS011;69766;51.476;5.704;2023-09-12T13:38:45;14.57;;;10.35;;
80425;SDS011;69766;51.476;5.704;2023-09-12T13:41:16;12.15;;;7.97;;
80425;SDS011;69766;51.476;5.704;2023-09-12T13:43:42;11.43;;;7.90;;
80425;SDS011;69766;51.476;5.704;2023-09-12T13:46:18;14.63;;;8.45;;
80425;SDS011;69766;51.476;5.704;2023-09-12T13:48:47;12.15;;;8.73;;
80425;SDS011;69766;51.476;5.704;2023-09-12T13:51:13;14.65;;;9.25;;
80425;SDS011;69766;51.476;5.704;2023-09-12T13:53:44;12.98;;;8.23;;
80425;SDS011;69766;51.476;5.704;2023-09-12T13:56:13;16.00;;;9.65;;
80425;SDS011;69766;51.476;5.704;2023-09-12T13:58:54;13.00;;;9.30;;
80425;SDS011;69766;51.476;5.704;2023-09-12T14:01:23;12.57;;;8.13;;
80425;SDS011;69766;51.476;5.704;2023-09-12T14:03:54;12.15;;;8.45;;
80425;SDS011;69766;51.476;5.704;2023-09-12T14:06:41;13.13;;;9.15;;
80425;SDS011;69766;51.476;5.704;2023-09-12T14:09:11;12.98;;;8.55;;
80425;SDS011;69766;51.476;5.704;2023-09-12T14:11:52;9.75;;;7.35;;
80425;SDS011;69766;51.476;5.704;2023-09-12T14:14:17;13.00;;;6.47;;
80425;SDS011;69766;51.476;5.704;2023-09-12T14:16:55;10.85;;;7.78;;
80425;SDS011;69766;51.476;5.704;2023-09-12T14:19:23;12.73;;;8.82;;
80425;SDS011;69766;51.476;5.704;2023-09-12T14:21:52;13.63;;;9.18;;
80425;SDS011;69766;51.476;5.704;2023-09-12T14:24:17;10.60;;;6.95;;
80425;SDS011;69766;51.476;5.704;2023-09-12T14:26:43;12.38;;;8.30;;
80425;SDS011;69766;51.476;5.704;2023-09-12T14:29:08;13.40;;;8.05;;
80425;SDS011;69766;51.476;5.704;2023-09-12T14:31:36;10.05;;;6.90;;
80425;SDS011;69766;51.476;5.704;2023-09-12T14:34:03;11.02;;;6.70;;
80425;SDS011;69766;51.476;5.704;2023-09-12T14:36:33;11.77;;;7.10;;
80425;SDS011;69766;51.476;5.704;2023-09-12T14:39:02;11.30;;;7.10;;
80425;SDS011;69766;51.476;5.704;2023-09-12T14:41:28;11.77;;;7.28;;
80425;SDS011;69766;51.476;5.704;2023-09-12T14:43:54;12.57;;;8.18;;
80425;SDS011;69766;51.476;5.704;2023-09-12T14:46:19;13.93;;;9.38;;
80425;SDS011;69766;51.476;5.704;2023-09-12T14:48:45;14.27;;;8.93;;
80425;SDS011;69766;51.476;5.704;2023-09-12T14:51:11;14.27;;;8.77;;
80425;SDS011;69766;51.476;5.704;2023-09-12T14:53:37;12.10;;;8.25;;
80425;SDS011;69766;51.476;5.704;2023-09-12T14:56:05;15.27;;;9.52;;
80425;SDS011;69766;51.476;5.704;2023-09-12T14:58:38;12.93;;;8.13;;
80425;SDS011;69766;51.476;5.704;2023-09-12T15:01:05;15.88;;;9.73;;
80425;SDS011;69766;51.476;5.704;2023-09-12T15:03:30;13.52;;;8.07;;
80425;SDS011;69766;51.476;5.704;2023-09-12T15:06:01;11.60;;;8.13;;
80425;SDS011;69766;51.476;5.704;2023-09-12T15:08:29;15.65;;;11.45;;
80425;SDS011;69766;51.476;5.704;2023-09-12T15:10:55;13.45;;;9.45;;